• Join FlightAware (Why Join?)
  • Login
  • US Flag 
03:07AM EDT


 

Airport Tracker/Info


-or-


 

Live Flight TrackerFlight Track Log ✈ DAL6196 ✈ 03-Aug-2013 ✈ KBNA - KLGA

Flight Track Log - Related Links

Times and Time Zones

All times are in EDT time to prevent confusion due to time zone crossing. See the DAL6196 flight status page for this flight to view local times or setup timezone preferences in your user account.

Time Position Orientation Groundspeed Altitude Reporting Facility
EDT Latitude Longitude Course Direction KTS MPH feet Rate Location/Type
08:07AM 36.1167 -86.6833 158° South 153 176 1,500  Level Nashville TRACON
08:08AM 36.0833 -86.6667 158° South 186 214 2,800 2,040 Climbing Nashville TRACON
08:09AM 36.0933 -86.5375 84° East 270 311 6,200 2,400 Climbing Memphis Center
08:10AM 36.1175 -86.4361 74° East 285 328 9,100 2,640 Climbing Memphis Center
08:11AM 36.1433 -86.3322 73° East 303 349 11,500 2,040 Climbing Memphis Center
08:12AM 36.1686 -86.2153 75° East 332 382 13,200 1,800 Climbing Memphis Center
08:13AM 36.1958 -86.0928 75° East 356 410 15,100 1,740 Climbing Memphis Center
08:14AM 36.2436 -85.9719 64° Northeast 372 428 16,700 1,620 Climbing Memphis Center
08:15AM 36.2978 -85.8533 60° Northeast 389 448 18,400 1,680 Climbing Memphis Center
08:16AM 36.3397 -85.7614 60° Northeast 402 463 19,700 1,560 Climbing Indianapolis Center
08:17AM 36.3978 -85.6411 59° Northeast 404 465 21,200 1,320 Climbing Indianapolis Center
08:18AM 36.4558 -85.5183 60° Northeast 407 468 22,400 1,080 Climbing Indianapolis Center
08:19AM 36.5161 -85.3903 60° Northeast 420 483 23,500 1,020 Climbing Indianapolis Center
08:20AM 36.5783 -85.2586 59° Northeast 434 499 24,600 1,020 Climbing Indianapolis Center
08:21AM 36.6328 -85.1167 64° Northeast 450 518 25,700 1,020 Climbing Indianapolis Center
08:22AM 36.6800 -84.9675 68° East 461 531 26,700 900 Climbing Indianapolis Center
08:23AM 36.7261 -84.8172 69° East 463 533 27,600 840 Climbing Indianapolis Center
08:24AM 36.7722 -84.6628 70° East 472 543 28,500 900 Climbing Indianapolis Center
08:25AM 36.8225 -84.5022 69° East 475 547 29,500 900 Climbing Indianapolis Center
08:26AM 36.8681 -84.3464 70° East 476 548 30,400 840 Climbing Indianapolis Center
08:27AM 36.9158 -84.1897 69° East 478 550 31,300 840 Climbing Indianapolis Center
08:28AM 36.9622 -84.0319 70° East 482 555 32,200 840 Climbing Indianapolis Center
08:29AM 37.0089 -83.8761 69° East 479 551 33,100 840 Climbing Indianapolis Center
08:30AM 37.0558 -83.7211 69° East 474 545 34,000 840 Climbing Indianapolis Center
08:31AM 37.1011 -83.5639 70° East 476 548 34,900 480 Climbing Indianapolis Center
08:32AM 37.1553 -83.3800 70° East 482 555 35,000  Climbing Indianapolis Center
08:34AM 37.2006 -83.2222 70° East 477 549 35,000  Level Indianapolis Center
08:35AM 37.2464 -83.0667 70° East 471 542 35,000  Level Indianapolis Center
08:36AM 37.2900 -82.9111 71° East 469 540 35,000  Level Indianapolis Center
08:37AM 37.3356 -82.7539 70° East 473 544 35,000  Level Indianapolis Center
08:38AM 37.3786 -82.5981 71° East 471 542 35,000  Level Indianapolis Center
08:39AM 37.4233 -82.4386 71° East 479 551 35,000  Level Indianapolis Center
08:40AM 37.4672 -82.2789 71° East 481 554 35,000  Level Indianapolis Center
08:41AM 37.5122 -82.1183 70° East 483 556 35,000  Level Indianapolis Center
08:42AM 37.5567 -81.9567 71° East 486 559 35,000  Level Indianapolis Center
08:43AM 37.6011 -81.7964 71° East 483 556 35,000  Level Indianapolis Center
08:44AM 37.6442 -81.6342 71° East 486 559 35,000  Level Indianapolis Center
08:45AM 37.6942 -81.4483 71° East 486 559 35,000  Level Indianapolis Center
08:46AM 37.7369 -81.2911 71° East 486 559 35,000  Level Indianapolis Center
08:47AM 37.7775 -81.1319 72° East 488 562 35,000  Level Indianapolis Center
08:48AM 37.7919 -80.9600 84° East 503 579 35,000  Level Indianapolis Center
08:49AM 37.8044 -80.7542 86° East 504 580 35,000  Level Indianapolis Center
08:50AM 37.8150 -80.5836 85° East 504 580 35,000  Level Indianapolis Center
08:51AM 37.8244 -80.4503 85° East 504 580 35,000  Level Washington Center
08:52AM 37.8358 -80.2722 85° East 504 580 35,000  Level Washington Center
08:53AM 37.8469 -80.0942 85° East 504 580 35,000  Level Washington Center
08:54AM 37.8569 -79.9317 85° East 504 580 35,000  Level Washington Center
08:55AM 37.8694 -79.7533 85° East 504 580 35,000  Level Washington Center
08:56AM 37.8819 -79.5725 85° East 504 580 35,000  Level Washington Center
08:57AM 37.8900 -79.3914 87° East 510 587 35,000  Level Washington Center
08:58AM 37.8997 -79.2131 86° East 510 587 35,000  Level Washington Center
08:59AM 37.9133 -79.0319 85° East 515 593 35,000  Level Washington Center
09:00AM 37.9375 -78.8408 81° East 510 587 35,000  Level Washington Center
09:01AM 37.9589 -78.6600 81° East 510 587 35,000  Level Washington Center
09:02AM 37.9778 -78.4869 82° East 505 581 35,000  Level Washington Center
09:03AM 37.9986 -78.3086 82° East 500 575 35,000  Level Washington Center
09:04AM 38.0147 -78.1483 83° East 506 582 35,000  Level Washington Center
09:05AM 38.0244 -77.9719 86° East 501 577 35,000  Level Washington Center
09:06AM 38.0342 -77.7931 86° East 496 571 35,000  Level Washington Center
09:07AM 38.0436 -77.6142 86° East 496 571 35,000  Level Washington Center
09:08AM 38.0756 -77.4408 77° East 496 571 35,000  Level Washington Center
09:09AM 38.1403 -77.2867 62° Northeast 489 563 35,000  Level Washington Center
09:10AM 38.2092 -77.1322 60° Northeast 489 563 35,000  Level Washington Center
09:11AM 38.2758 -76.9778 61° Northeast 489 563 35,000  Level Washington Center
09:12AM 38.3419 -76.8281 61° Northeast 489 563 35,000 -600 Level Washington Center
09:13AM 38.4122 -76.6756 60° Northeast 489 563 33,900 -1,380 Descending Washington Center
09:14AM 38.4803 -76.5172 61° Northeast 495 570 32,400 -1,560 Descending Washington Center
09:15AM 38.5625 -76.3856 51° Northeast 495 570 30,800 -1,560 Descending Washington Center
09:16AM 38.6592 -76.2828 40° Northeast 467 537 29,300 -1,560 Descending Washington Center
09:17AM 38.7556 -76.1800 40° Northeast 448 516 27,800 -1,140 Descending Washington Center
09:18AM 38.8603 -76.0714 39° Northeast 443 510 27,000 -420 Descending Washington Center
09:19AM 38.9044 -75.9250 69° East 423 487 27,000  Level Washington Center
09:20AM 38.9569 -75.7786 65° Northeast 429 494 27,000  Level Washington Center
09:21AM 39.0592 -75.6797 37° Northeast 434 499 27,000 -780 Level Washington Center
09:22AM 39.1633 -75.5808 36° Northeast 447 514 25,500 -1,680 Descending Washington Center
09:23AM 39.2697 -75.4844 35° Northeast 461 531 23,700 -1,860 Descending Washington Center
09:24AM 39.3736 -75.3928 34° Northeast 461 531 21,900 -1,740 Descending Washington Center
09:25AM 39.4756 -75.3011 35° Northeast 450 518 20,200 -1,620 Descending Washington Center
09:26AM 39.5753 -75.2092 35° Northeast 445 512 18,700 -1,620 Descending Washington Center
09:27AM 39.6750 -75.1169 35° Northeast 440 506 17,100 -1,500 Descending Washington Center
09:28AM 39.7728 -75.0328 33° Northeast 430 495 15,700 -1,500 Descending Washington Center
09:29AM 39.8681 -74.9508 33° Northeast 415 478 14,100 -1,440 Descending Washington Center
09:30AM 39.9467 -74.8636 40° Northeast 415 478 12,900 -1,380 Descending Washington Center
09:31AM 40.0231 -74.7569 47° Northeast 402 463 11,400 -1,200 Descending Washington Center
09:32AM 40.1333 -74.5833 50° Northeast 378 435 10,000 -600 Descending New York TRACON
09:33AM 40.2000 -74.4833 49° Northeast 365 420 10,000 -360 Level New York TRACON
09:34AM 40.2667 -74.4000 44° Northeast 319 367 9,300 -1,320 Descending New York TRACON
09:35AM 40.3333 -74.3333 37° Northeast 317 365 7,600 -1,260 Descending New York TRACON
09:36AM 40.4000 -74.2500 44° Northeast 300 345 7,000 -360 Descending New York TRACON
09:37AM 40.4500 -74.1833 45° Northeast 303 349 7,000 -540 Level New York TRACON
09:38AM 40.5000 -74.1167 45° Northeast 295 339 6,000 -540 Descending New York TRACON
09:39AM 40.5667 -74.0500 37° Northeast 277 319 6,000 -540 Level New York TRACON
09:40AM 40.6500 -74.0333 North 272 313 5,000 -1,380 Descending New York TRACON
09:41AM 40.7167 -74.0167 11° North 257 296 3,300 -1,020 Descending New York TRACON
09:42AM 40.7833 -74.0000 11° North 262 302 3,000 -180 Descending New York TRACON
09:43AM 40.8500 -73.9500 30° Northeast 262 302 3,000 -120 Level New York TRACON
09:44AM 40.8833 -73.8833 57° Northeast 260 299 2,800 -540 Descending New York TRACON
09:45AM 40.8667 -73.8167 108° East 223 257 2,000 -900 Descending New York TRACON
09:46AM 40.8333 -73.8333 201° Southwest 141 162 1,200 -840 Descending New York TRACON
09:47AM 40.8000 -73.8667 217° Southwest 130 150 400 -780 Descending New York TRACON